createdAt,value
2018-02-12T00:02:39.799Z,73.52
2018-02-12T00:07:41.122Z,73.06
2018-02-12T00:12:42.450Z,73.04
2018-02-12T00:17:43.879Z,73.23
2018-02-12T00:22:45.971Z,73.45
2018-02-12T00:27:47.299Z,73.61
2018-02-12T00:32:48.713Z,73.61
2018-02-12T00:37:50.071Z,73.87
2018-02-12T00:42:51.382Z,73.61
2018-02-12T00:47:52.869Z,74.07
2018-02-12T00:52:54.201Z,73.96
2018-02-12T00:57:55.535Z,73.80
2018-02-12T01:02:57.020Z,74.11
2018-02-12T01:07:58.351Z,73.87
2018-02-12T01:12:59.738Z,74.31
2018-02-12T01:18:01.135Z,74.01
2018-02-12T01:23:02.687Z,74.50
2018-02-12T01:28:04.022Z,74.62
2018-02-12T01:33:05.571Z,74.57
2018-02-12T01:38:06.954Z,74.46
2018-02-12T01:43:08.278Z,74.88
2018-02-12T01:48:09.689Z,74.40
2018-02-12T01:53:11.023Z,75.07
2018-02-12T01:58:12.356Z,75.18
2018-02-12T02:03:13.759Z,74.61
2018-02-12T02:08:15.315Z,74.82
2018-02-12T02:13:16.715Z,75.38
2018-02-12T02:18:18.090Z,75.21
2018-02-12T02:23:19.437Z,74.98
2018-02-12T02:28:20.779Z,74.87
2018-02-12T02:33:22.154Z,74.25
2018-02-12T02:38:23.519Z,74.43
2018-02-12T02:43:25.624Z,74.18
2018-02-12T02:48:26.954Z,74.19
2018-02-12T02:53:28.284Z,73.62
2018-02-12T02:58:29.600Z,74.04
2018-02-12T03:03:31.712Z,73.71
2018-02-12T03:08:33.807Z,73.91
2018-02-12T03:13:35.163Z,73.72
2018-02-12T03:18:36.510Z,73.67
2018-02-12T03:23:37.875Z,73.53
2018-02-12T03:28:39.274Z,73.44
2018-02-12T03:33:41.382Z,73.12
2018-02-12T03:38:43.532Z,73.15
2018-02-12T03:43:44.878Z,73.31
2018-02-12T03:48:47.102Z,73.42
2018-02-12T03:53:48.417Z,73.61
2018-02-12T03:58:56.793Z,73.15
2018-02-12T04:03:58.181Z,73.38
2018-02-12T04:08:59.503Z,73.55
2018-02-12T04:14:01.599Z,73.17
2018-02-12T04:19:02.994Z,73.14
2018-02-12T04:24:04.364Z,73.32
2018-02-12T04:29:05.691Z,73.47
2018-02-12T04:34:07.068Z,74.05
2018-02-12T04:39:09.198Z,74.00
2018-02-12T04:44:10.498Z,73.91
2018-02-12T04:49:11.838Z,73.90
2018-02-12T04:54:13.216Z,73.70
2018-02-12T04:59:14.614Z,74.05
2018-02-12T05:04:15.971Z,74.37
2018-02-12T05:09:17.323Z,74.74
2018-02-12T05:14:19.421Z,75.73
2018-02-12T05:19:21.532Z,76.17
2018-02-12T05:24:22.887Z,76.21
2018-02-12T05:29:24.249Z,75.36
2018-02-12T05:34:25.594Z,75.13
2018-02-12T05:39:27.683Z,75.94
2018-02-12T05:44:29.054Z,75.91
2018-02-12T05:49:30.415Z,75.80
2018-02-12T05:54:31.795Z,75.26
2018-02-12T05:59:33.138Z,75.25
2018-02-12T06:04:34.495Z,75.86
2018-02-12T06:09:42.923Z,76.27
2018-02-12T06:14:44.325Z,76.26
2018-02-12T06:19:45.662Z,76.48
2018-02-12T06:24:47.023Z,76.72
2018-02-12T06:29:48.381Z,77.54
2018-02-12T06:34:49.698Z,77.35
2018-02-12T06:39:51.074Z,76.99
2018-02-12T06:44:52.420Z,76.27
2018-02-12T06:49:53.763Z,76.37
2018-02-12T06:54:55.087Z,76.08
2018-02-12T06:59:56.430Z,75.84
2018-02-12T07:04:57.798Z,75.79
2018-02-12T07:09:59.894Z,75.59
2018-02-12T07:15:01.242Z,75.91
2018-02-12T07:20:02.624Z,75.15
2018-02-12T07:25:04.007Z,75.16
2018-02-12T07:30:05.367Z,74.75
2018-02-12T07:35:07.456Z,74.65
2018-02-12T07:40:08.808Z,74.55
2018-02-12T07:45:10.163Z,74.22
2018-02-12T07:50:12.242Z,73.94
2018-02-12T07:55:13.589Z,73.92
2018-02-12T08:00:14.931Z,73.40
2018-02-12T08:05:17.062Z,73.01
2018-02-12T08:10:18.519Z,72.69
2018-02-12T08:15:19.861Z,72.55
2018-02-12T08:20:21.272Z,71.90
2018-02-12T08:25:22.638Z,71.97
2018-02-12T08:30:24.787Z,71.51
2018-02-12T08:35:26.249Z,71.66
2018-02-12T08:40:27.635Z,72.45
2018-02-12T08:45:29.645Z,72.04
2018-02-12T08:50:31.093Z,70.21
2018-02-12T08:55:32.472Z,69.15
2018-02-12T09:00:34.564Z,70.03
2018-02-12T09:05:35.937Z,72.27
2018-02-12T09:10:37.291Z,73.47
2018-02-12T09:15:38.654Z,73.98
2018-02-12T09:20:40.776Z,73.97
2018-02-12T09:25:42.902Z,74.04
2018-02-12T09:30:44.231Z,73.52
2018-02-12T09:35:48.812Z,72.23
2018-02-12T09:40:50.311Z,71.22
2018-02-12T09:45:51.690Z,70.42
2018-02-12T09:50:53.063Z,69.66
2018-02-12T09:55:54.391Z,68.36
2018-02-12T10:00:56.534Z,68.12
2018-02-12T10:05:57.879Z,68.94
2018-02-12T10:10:59.296Z,69.69
2018-02-12T10:16:00.693Z,69.50
2018-02-12T10:21:02.104Z,69.42
2018-02-12T10:26:03.454Z,68.58
2018-02-12T10:31:05.538Z,67.66
2018-02-12T10:36:06.866Z,66.71
2018-02-12T10:41:08.336Z,66.30
2018-02-12T10:46:10.508Z,67.27
2018-02-12T10:51:12.000Z,66.58
2018-02-12T10:56:13.331Z,67.07
2018-02-12T11:01:15.403Z,66.77
2018-02-12T11:06:16.847Z,65.95
2018-02-12T11:11:18.228Z,64.44
2018-02-12T11:16:19.611Z,64.99
2018-02-12T11:21:21.997Z,65.39
2018-02-12T11:26:23.421Z,65.51
2018-02-12T11:31:25.527Z,66.67
2018-02-12T11:36:27.616Z,66.60
2018-02-12T11:41:29.747Z,66.74
2018-02-12T11:46:31.197Z,68.19
2018-02-12T11:51:32.576Z,68.68
2018-02-12T11:56:33.976Z,68.03
2018-02-12T12:01:35.332Z,67.24
2018-02-12T12:06:36.731Z,67.29
2018-02-12T12:11:38.258Z,65.98
2018-02-12T12:16:39.645Z,65.86
2018-02-12T12:21:41.023Z,64.67
2018-02-12T12:26:44.457Z,65.65
2018-02-12T12:31:46.679Z,63.07
2018-02-12T12:36:48.006Z,63.46
2018-02-12T12:41:50.141Z,62.27
2018-02-12T12:46:51.495Z,61.50
2018-02-12T12:51:54.220Z,61.63
2018-02-12T12:56:56.309Z,61.45
2018-02-12T13:01:59.708Z,62.25
2018-02-12T13:07:01.060Z,62.70
2018-02-12T13:12:03.198Z,64.01
2018-02-12T13:17:04.659Z,62.29
2018-02-12T13:22:06.867Z,60.53
2018-02-12T13:27:09.020Z,61.28
2018-02-12T13:32:10.360Z,61.22
2018-02-12T13:37:12.438Z,61.58
2018-02-12T13:42:13.790Z,61.16
2018-02-12T13:47:15.158Z,60.52
2018-02-12T13:52:17.297Z,59.79
2018-02-12T13:57:18.607Z,60.60
2018-02-12T14:02:19.960Z,62.89
2018-02-12T14:07:21.284Z,64.80
2018-02-12T14:12:22.607Z,65.44
2018-02-12T14:17:23.971Z,64.91
2018-02-12T14:22:25.304Z,65.57
2018-02-12T14:27:26.639Z,66.91
2018-02-12T14:32:27.983Z,67.55
2018-02-12T14:37:29.331Z,67.15
2018-02-12T14:42:30.700Z,64.66
2018-02-12T14:47:32.162Z,62.96
2018-02-12T14:52:33.559Z,63.03
2018-02-12T14:57:34.938Z,63.62
2018-02-12T15:02:36.361Z,63.92
2018-02-12T15:07:37.762Z,63.36
2018-02-12T15:12:39.161Z,63.77
2018-02-12T15:17:40.548Z,64.27
2018-02-12T15:22:41.908Z,65.24
2018-02-12T15:27:44.059Z,66.29
2018-02-12T15:32:46.233Z,67.83
2018-02-12T15:37:47.554Z,71.94
2018-02-12T15:42:48.935Z,74.33
2018-02-12T15:47:50.349Z,75.75
2018-02-12T15:52:51.759Z,76.27
2018-02-12T15:57:53.823Z,76.58
2018-02-12T16:02:55.193Z,76.21
2018-02-12T16:07:56.519Z,76.32
2018-02-12T16:12:57.943Z,76.38
2018-02-12T16:18:00.088Z,77.03
2018-02-12T16:23:01.556Z,77.49
2018-02-12T16:28:03.073Z,77.14
2018-02-12T16:33:08.248Z,77.22
2018-02-12T16:38:09.659Z,76.74
2018-02-12T16:43:11.059Z,76.35
2018-02-12T16:48:12.461Z,76.14
2018-02-12T16:53:13.825Z,76.26
2018-02-12T16:58:15.199Z,75.62
2018-02-12T17:03:16.602Z,75.82
2018-02-12T17:08:17.992Z,75.71
2018-02-12T17:13:19.372Z,75.48
2018-02-12T17:18:20.809Z,75.38
2018-02-12T17:23:22.156Z,74.95
2018-02-12T17:28:23.536Z,74.71
2018-02-12T17:33:24.958Z,74.82
2018-02-12T17:38:26.338Z,74.83
2018-02-12T17:43:27.718Z,75.01
2018-02-12T17:48:29.116Z,74.73
2018-02-12T17:53:30.474Z,74.65
2018-02-12T17:58:31.859Z,74.94
2018-02-12T18:03:34.039Z,75.17
2018-02-12T18:08:35.407Z,75.21
2018-02-12T18:13:36.872Z,75.34
2018-02-12T18:18:38.257Z,74.78
2018-02-12T18:23:39.637Z,74.97
2018-02-12T18:28:41.767Z,75.35
2018-02-12T18:33:43.472Z,75.29
2018-02-12T18:38:44.887Z,75.09
2018-02-12T18:43:46.580Z,75.21
2018-02-12T18:48:47.998Z,75.52
2018-02-12T18:53:49.372Z,75.71
2018-02-12T18:58:50.844Z,75.30
2018-02-12T19:03:52.235Z,75.32
2018-02-12T19:08:53.592Z,75.01
2018-02-12T19:13:56.252Z,75.04
2018-02-12T19:18:57.644Z,75.22
2018-02-12T19:23:59.111Z,75.18
2018-02-12T19:29:00.752Z,75.16
2018-02-12T19:34:02.279Z,74.91
2018-02-12T19:39:04.032Z,74.97
2018-02-12T19:44:07.667Z,75.29
2018-02-12T19:49:09.291Z,75.36
2018-02-12T19:54:10.687Z,75.17
2018-02-12T19:59:13.094Z,74.89
2018-02-12T20:04:14.555Z,74.89
2018-02-12T20:09:16.884Z,74.99
2018-02-12T20:14:18.367Z,75.05
2018-02-12T20:19:21.458Z,75.21
2018-02-12T20:24:23.598Z,75.18
2018-02-12T20:29:25.007Z,74.96
2018-02-12T20:34:26.391Z,74.79
2018-02-12T20:39:27.784Z,74.78
2018-02-12T20:44:29.168Z,74.96
2018-02-12T20:49:30.569Z,74.76
2018-02-12T20:54:32.234Z,74.69
2018-02-12T20:59:33.649Z,75.10
2018-02-12T21:04:35.083Z,75.18
2018-02-12T21:09:37.208Z,75.47
2018-02-12T21:14:38.581Z,75.34
2018-02-12T21:19:40.742Z,75.56
2018-02-12T21:24:42.138Z,75.21
2018-02-12T21:29:44.113Z,75.16
2018-02-12T21:34:45.778Z,75.44
2018-02-12T21:39:47.918Z,75.32
2018-02-12T21:44:49.362Z,75.47
2018-02-12T21:49:50.757Z,75.40
2018-02-12T21:54:52.112Z,75.11
2018-02-12T21:59:53.438Z,75.24
2018-02-12T22:04:54.877Z,75.17
2018-02-12T22:09:56.254Z,75.11
2018-02-12T22:14:57.678Z,75.28
2018-02-12T22:19:59.100Z,74.91
2018-02-12T22:25:00.574Z,74.80
2018-02-12T22:30:01.905Z,74.85
2018-02-12T22:35:03.339Z,74.78
2018-02-12T22:40:04.734Z,74.49
2018-02-12T22:45:06.049Z,74.19
2018-02-12T22:50:07.610Z,74.26
2018-02-12T22:55:08.995Z,74.08
2018-02-12T23:00:10.382Z,74.11
2018-02-12T23:05:11.709Z,74.00
2018-02-12T23:10:13.063Z,73.99
2018-02-12T23:15:20.602Z,73.87
2018-02-12T23:20:21.974Z,73.81
2018-02-12T23:25:23.314Z,73.62
2018-02-12T23:30:24.767Z,73.47
2018-02-12T23:35:26.111Z,73.87
2018-02-12T23:40:28.258Z,73.70
2018-02-12T23:45:29.585Z,73.59
2018-02-12T23:50:30.907Z,73.59
2018-02-12T23:55:33.233Z,73.87
